createdAt,value
2018-04-17T00:00:44.727Z,55.80
2018-04-17T00:01:45.831Z,55.90
2018-04-17T00:02:46.919Z,56.00
2018-04-17T00:03:48.043Z,56.00
2018-04-17T00:04:49.118Z,56.10
2018-04-17T00:05:50.941Z,56.00
2018-04-17T00:06:52.025Z,56.40
2018-04-17T00:07:53.103Z,56.50
2018-04-17T00:08:54.166Z,56.50
2018-04-17T00:09:55.266Z,56.50
2018-04-17T00:10:56.342Z,56.60
2018-04-17T00:11:57.414Z,56.60
2018-04-17T00:12:58.499Z,56.90
2018-04-17T00:14:00.298Z,56.70
2018-04-17T00:15:01.363Z,56.80
2018-04-17T00:16:02.480Z,56.70
2018-04-17T00:17:03.628Z,57.10
2018-04-17T00:18:05.462Z,56.40
2018-04-17T00:19:06.565Z,57.00
2018-04-17T00:20:07.666Z,57.10
2018-04-17T00:21:08.770Z,57.30
2018-04-17T00:22:09.849Z,57.50
2018-04-17T00:23:10.933Z,57.40
2018-04-17T00:24:12.032Z,57.50
2018-04-17T00:25:13.143Z,57.50
2018-04-17T00:26:14.222Z,57.70
2018-04-17T00:27:15.354Z,57.50
2018-04-17T00:28:16.423Z,57.70
2018-04-17T00:29:18.222Z,58.00
2018-04-17T00:30:19.291Z,57.90
2018-04-17T00:31:21.151Z,58.10
2018-04-17T00:32:23.016Z,58.10
2018-04-17T00:33:24.083Z,58.30
2018-04-17T00:34:25.168Z,58.20
2018-04-17T00:35:26.255Z,58.30
2018-04-17T00:36:27.352Z,58.50
2018-04-17T00:37:28.485Z,58.40
2018-04-17T00:38:29.624Z,58.50
2018-04-17T00:39:30.739Z,58.80
2018-04-17T00:40:31.839Z,58.80
2018-04-17T00:41:32.966Z,58.70
2018-04-17T00:42:34.071Z,59.70
2018-04-17T00:43:35.148Z,58.90
2018-04-17T00:44:36.220Z,58.90
2018-04-17T00:45:37.339Z,58.90
2018-04-17T00:46:38.440Z,58.90
2018-04-17T00:47:39.486Z,58.90
2018-04-17T00:48:41.287Z,59.20
2018-04-17T00:49:42.375Z,59.10
2018-04-17T00:50:44.183Z,58.80
2018-04-17T00:51:45.250Z,58.90
2018-04-17T00:52:47.051Z,58.80
2018-04-17T00:53:53.015Z,58.80
2018-04-17T00:54:54.143Z,58.80
2018-04-17T00:55:55.214Z,58.80
2018-04-17T00:56:57.009Z,59.20
2018-04-17T00:57:58.815Z,58.80
2018-04-17T00:59:00.635Z,59.10
2018-04-17T01:00:01.709Z,59.10
2018-04-17T01:01:02.776Z,59.00
2018-04-17T01:02:03.887Z,59.00
2018-04-17T01:03:04.978Z,59.30
2018-04-17T01:04:06.065Z,59.30
2018-04-17T01:05:07.122Z,59.50
2018-04-17T01:06:08.195Z,59.60
2018-04-17T01:07:10.003Z,59.70
2018-04-17T01:08:11.071Z,59.70
2018-04-17T01:09:12.866Z,59.80
2018-04-17T01:10:13.931Z,59.80
2018-04-17T01:11:15.750Z,60.10
2018-04-17T01:12:16.836Z,59.80
2018-04-17T01:13:17.927Z,59.90
2018-04-17T01:14:19.026Z,60.00
2018-04-17T01:15:20.105Z,59.80
2018-04-17T01:16:21.182Z,60.00
2018-04-17T01:17:22.269Z,60.00
2018-04-17T01:18:23.346Z,60.00
2018-04-17T01:19:24.423Z,60.00
2018-04-17T01:20:25.513Z,60.20
2018-04-17T01:21:26.619Z,60.20
2018-04-17T01:22:28.443Z,60.40
2018-04-17T01:23:29.528Z,60.30
2018-04-17T01:24:30.606Z,60.20
2018-04-17T01:25:31.696Z,60.30
2018-04-17T01:26:32.759Z,60.70
2018-04-17T01:27:33.851Z,60.60
2018-04-17T01:28:34.981Z,60.40
2018-04-17T01:29:36.059Z,60.50
2018-04-17T01:30:37.155Z,60.30
2018-04-17T01:31:38.962Z,60.90
2018-04-17T01:32:40.062Z,60.50
2018-04-17T01:33:41.143Z,60.60
2018-04-17T01:34:42.971Z,60.40
2018-04-17T01:35:44.077Z,60.50
2018-04-17T01:36:45.183Z,60.50
2018-04-17T01:37:46.314Z,60.40
2018-04-17T01:38:47.395Z,60.40
2018-04-17T01:39:48.475Z,60.90
2018-04-17T01:40:49.558Z,60.60
2018-04-17T01:41:50.666Z,60.60
2018-04-17T01:42:51.726Z,60.90
2018-04-17T01:43:52.818Z,60.90
2018-04-17T01:44:54.631Z,60.90
2018-04-17T01:45:56.434Z,61.60
2018-04-17T01:46:57.516Z,60.80
2018-04-17T01:47:59.349Z,60.80
2018-04-17T01:49:00.429Z,60.80
2018-04-17T01:50:01.548Z,60.80
2018-04-17T01:51:02.656Z,61.00
2018-04-17T01:52:04.483Z,61.70
2018-04-17T01:53:05.582Z,60.90
2018-04-17T01:54:06.681Z,61.00
2018-04-17T01:55:08.503Z,60.70
2018-04-17T01:56:09.583Z,60.90
2018-04-17T01:57:11.375Z,60.80
2018-04-17T01:58:12.468Z,60.90
2018-04-17T01:59:13.542Z,60.70
2018-04-17T02:00:14.655Z,60.90
2018-04-17T02:01:16.474Z,60.80
2018-04-17T02:02:17.555Z,60.80
2018-04-17T02:03:20.380Z,61.20
2018-04-17T02:04:21.475Z,61.20
2018-04-17T02:05:22.538Z,61.10
2018-04-17T02:06:23.638Z,61.00
2018-04-17T02:07:24.699Z,61.10
2018-04-17T02:09:33.716Z,61.10
2018-04-17T02:10:35.545Z,61.40
2018-04-17T02:11:36.643Z,61.30
2018-04-17T02:12:37.738Z,61.40
2018-04-17T02:13:38.812Z,61.50
2018-04-17T02:14:39.892Z,61.40
2018-04-17T02:15:40.966Z,61.60
2018-04-17T02:16:42.035Z,62.00
2018-04-17T02:17:43.106Z,61.80
2018-04-17T02:18:44.232Z,61.90
2018-04-17T02:19:45.335Z,62.00
2018-04-17T02:20:46.416Z,62.00
2018-04-17T02:21:47.500Z,62.00
2018-04-17T02:22:48.562Z,62.00
2018-04-17T02:23:50.375Z,62.00
2018-04-17T02:24:51.463Z,61.90
2018-04-17T02:25:52.543Z,61.80
2018-04-17T02:26:53.616Z,62.00
2018-04-17T02:27:54.713Z,62.30
2018-04-17T02:28:55.779Z,62.30
2018-04-17T02:29:56.855Z,62.30
2018-04-17T02:30:57.932Z,62.40
2018-04-17T02:31:59.738Z,62.30
2018-04-17T02:33:00.819Z,62.30
2018-04-17T02:34:02.648Z,62.30
2018-04-17T02:35:03.717Z,62.30
2018-04-17T02:36:04.774Z,62.30
2018-04-17T02:37:06.667Z,62.20
2018-04-17T02:38:07.755Z,62.20
2018-04-17T02:39:08.819Z,62.20
2018-04-17T02:40:09.887Z,62.30
2018-04-17T02:41:10.950Z,62.10
2018-04-17T02:42:12.002Z,62.20
2018-04-17T02:43:13.068Z,62.20
2018-04-17T02:44:14.164Z,62.20
2018-04-17T02:45:15.237Z,62.20
2018-04-17T02:46:16.329Z,62.20
2018-04-17T02:47:17.411Z,62.20
2018-04-17T02:48:18.480Z,62.10
2018-04-17T02:49:19.567Z,62.10
2018-04-17T02:50:21.369Z,62.30
2018-04-17T02:51:22.478Z,62.30
2018-04-17T02:52:23.554Z,62.40
2018-04-17T02:53:24.637Z,62.60
2018-04-17T02:54:26.452Z,62.70
2018-04-17T02:55:28.251Z,62.70
2018-04-17T02:56:29.329Z,62.80
2018-04-17T02:57:30.413Z,62.90
2018-04-17T02:58:31.488Z,63.70
2018-04-17T02:59:32.584Z,63.10
2018-04-17T03:00:33.657Z,63.10
2018-04-17T03:01:34.714Z,63.20
2018-04-17T03:02:35.787Z,63.20
2018-04-17T03:03:36.858Z,63.30
2018-04-17T03:04:38.029Z,63.30
2018-04-17T03:05:39.094Z,63.20
2018-04-17T03:06:40.164Z,63.00
2018-04-17T03:07:41.279Z,63.00
2018-04-17T03:08:42.347Z,63.00
2018-04-17T03:09:43.429Z,63.30
2018-04-17T03:10:44.496Z,63.30
2018-04-17T03:11:45.607Z,63.20
2018-04-17T03:12:46.659Z,63.50
2018-04-17T03:13:47.735Z,63.40
2018-04-17T03:14:48.804Z,63.50
2018-04-17T03:15:49.870Z,63.50
2018-04-17T03:16:50.935Z,64.00
2018-04-17T03:17:52.017Z,63.60
2018-04-17T03:18:53.080Z,63.70
2018-04-17T03:19:54.163Z,63.80
2018-04-17T03:20:55.223Z,63.80
2018-04-17T03:21:56.292Z,63.90
2018-04-17T03:22:57.358Z,63.90
2018-04-17T03:23:59.171Z,64.10
2018-04-17T03:25:00.259Z,64.00
2018-04-17T03:26:01.324Z,64.10
2018-04-17T03:27:02.416Z,64.20
2018-04-17T03:28:04.228Z,64.10
2018-04-17T03:29:05.280Z,64.10
2018-04-17T03:30:06.361Z,64.10
2018-04-17T03:31:07.443Z,64.20
2018-04-17T03:32:08.556Z,64.50
2018-04-17T03:33:09.628Z,64.40
2018-04-17T03:34:10.759Z,64.40
2018-04-17T03:35:12.597Z,64.30
2018-04-17T03:36:14.428Z,64.40
2018-04-17T03:37:15.499Z,64.20
2018-04-17T03:38:16.590Z,64.30
2018-04-17T03:39:17.728Z,64.40
2018-04-17T03:40:18.839Z,64.50
2018-04-17T03:41:19.924Z,64.60
2018-04-17T03:42:21.736Z,64.80
2018-04-17T03:43:22.803Z,64.80
2018-04-17T03:44:24.602Z,64.90
2018-04-17T03:45:25.701Z,64.90
2018-04-17T03:46:27.498Z,65.00
2018-04-17T03:47:28.598Z,65.00
2018-04-17T03:48:29.783Z,65.90
2018-04-17T03:49:30.866Z,65.00
2018-04-17T03:50:31.948Z,65.10
2018-04-17T03:51:33.035Z,65.10
2018-04-17T03:52:34.086Z,65.10
2018-04-17T03:53:35.160Z,65.10
2018-04-17T03:54:36.222Z,65.30
2018-04-17T03:55:37.309Z,65.40
2018-04-17T03:56:38.375Z,65.40
2018-04-17T03:57:39.467Z,65.30
2018-04-17T03:58:40.535Z,65.20
2018-04-17T04:00:49.303Z,65.10
2018-04-17T04:01:50.373Z,65.40
2018-04-17T04:02:51.452Z,65.30
2018-04-17T04:03:52.523Z,65.50
2018-04-17T04:04:53.607Z,65.70
2018-04-17T04:05:54.702Z,65.60
2018-04-17T04:06:56.506Z,65.80
2018-04-17T04:07:57.595Z,65.80
2018-04-17T04:08:58.671Z,65.80
2018-04-17T04:09:59.731Z,65.90
2018-04-17T04:11:00.831Z,66.70
2018-04-17T04:12:01.932Z,66.00
2018-04-17T04:13:03.014Z,66.00
2018-04-17T04:14:04.116Z,66.00
2018-04-17T04:15:05.175Z,66.00
2018-04-17T04:16:18.422Z,66.00
2018-04-17T04:17:31.665Z,66.00
2018-04-17T04:18:44.942Z,66.00
2018-04-17T04:19:58.171Z,66.00
2018-04-17T04:21:11.483Z,65.80
2018-04-17T04:22:24.980Z,65.90
2018-04-17T04:23:38.327Z,66.20
2018-04-17T04:24:51.567Z,66.10
2018-04-17T04:26:04.831Z,66.10
2018-04-17T04:27:05.925Z,66.30
2018-04-17T04:28:07.007Z,66.30
2018-04-17T04:29:08.077Z,66.40
2018-04-17T04:30:09.181Z,66.50
2018-04-17T04:31:10.279Z,66.60
2018-04-17T04:32:11.363Z,66.60
2018-04-17T04:33:12.447Z,66.50
2018-04-17T04:34:13.519Z,66.70
2018-04-17T04:35:14.660Z,66.60
2018-04-17T04:36:16.479Z,66.80
2018-04-17T04:37:17.591Z,66.70
2018-04-17T04:38:18.712Z,66.60
2018-04-17T04:39:19.776Z,66.70
2018-04-17T04:40:20.872Z,66.50
2018-04-17T04:41:21.956Z,66.70
2018-04-17T04:42:23.025Z,66.40
2018-04-17T04:43:24.112Z,66.80
2018-04-17T04:44:25.220Z,66.70
2018-04-17T04:45:26.304Z,66.50
2018-04-17T04:46:28.139Z,67.30
2018-04-17T04:47:29.962Z,66.60
2018-04-17T04:48:31.038Z,66.60
2018-04-17T04:49:32.123Z,67.30
2018-04-17T04:50:33.227Z,66.60
2018-04-17T04:51:34.303Z,66.70
2018-04-17T04:52:35.359Z,66.80
2018-04-17T04:53:37.187Z,66.50
2018-04-17T04:54:38.274Z,66.60
2018-04-17T04:55:39.351Z,66.50
2018-04-17T04:56:40.458Z,66.40
2018-04-17T04:57:41.572Z,66.60
2018-04-17T04:58:42.616Z,66.60
2018-04-17T04:59:43.695Z,66.70
2018-04-17T05:00:44.778Z,66.60
2018-04-17T05:01:46.604Z,66.80
2018-04-17T05:02:48.418Z,67.10
2018-04-17T05:03:49.498Z,67.10
2018-04-17T05:04:50.629Z,66.90
2018-04-17T05:05:51.687Z,67.20
2018-04-17T05:06:52.824Z,67.10
2018-04-17T05:07:53.908Z,67.00
2018-04-17T05:08:54.982Z,66.90
2018-04-17T05:09:56.039Z,67.00
2018-04-17T05:10:57.115Z,66.90
2018-04-17T05:11:58.971Z,66.90
2018-04-17T05:13:00.063Z,67.70
2018-04-17T05:14:01.168Z,66.90
2018-04-17T05:15:02.305Z,67.00
2018-04-17T05:16:03.420Z,66.80
2018-04-17T05:17:04.552Z,66.80
2018-04-17T05:18:05.672Z,67.80
2018-04-17T05:19:06.759Z,66.80
2018-04-17T05:20:07.867Z,67.50
2018-04-17T05:21:08.959Z,66.60
2018-04-17T05:22:10.101Z,66.60
2018-04-17T05:23:11.295Z,66.60
2018-04-17T05:24:13.164Z,67.00
2018-04-17T05:25:14.255Z,66.40
2018-04-17T05:26:15.412Z,66.30
2018-04-17T05:27:16.565Z,66.10
2018-04-17T05:28:17.648Z,66.10
2018-04-17T05:29:18.767Z,67.50
2018-04-17T05:30:19.901Z,66.20
2018-04-17T05:31:21.024Z,66.10
2018-04-17T05:32:22.124Z,66.20
2018-04-17T05:33:24.006Z,66.20
2018-04-17T05:34:25.122Z,66.90
2018-04-17T05:35:26.259Z,66.00
2018-04-17T05:36:27.318Z,65.80
2018-04-17T05:37:28.390Z,65.40
2018-04-17T05:38:29.463Z,65.30
2018-04-17T05:39:30.616Z,65.30
2018-04-17T05:40:31.709Z,65.10
2018-04-17T05:41:32.784Z,64.80
2018-04-17T05:42:33.883Z,65.00
2018-04-17T05:43:35.683Z,64.90
2018-04-17T05:44:36.752Z,64.90
2018-04-17T05:45:37.831Z,64.70
2018-04-17T05:46:39.091Z,64.90
2018-04-17T05:47:40.182Z,64.70
2018-04-17T05:48:41.242Z,64.80
2018-04-17T05:49:42.322Z,65.00
2018-04-17T05:50:44.191Z,65.20
2018-04-17T05:51:45.272Z,65.20
2018-04-17T05:52:46.347Z,65.10
2018-04-17T05:53:48.152Z,65.00
2018-04-17T05:54:49.269Z,65.00
2018-04-17T05:55:50.463Z,65.00
2018-04-17T05:56:51.463Z,65.20
2018-04-17T05:57:52.540Z,65.10
2018-04-17T05:58:53.628Z,65.00
2018-04-17T05:59:54.690Z,64.90
2018-04-17T06:00:56.515Z,64.90
2018-04-17T06:01:57.570Z,64.80
2018-04-17T06:02:58.649Z,64.90
2018-04-17T06:03:59.743Z,64.80
2018-04-17T06:05:00.823Z,64.70
2018-04-17T06:06:01.926Z,64.80
2018-04-17T06:07:02.992Z,64.80
2018-04-17T06:08:04.099Z,64.80
2018-04-17T06:09:05.198Z,64.90
2018-04-17T06:10:06.262Z,64.90
2018-04-17T06:11:07.356Z,64.70
2018-04-17T06:12:08.482Z,64.80
2018-04-17T06:13:10.303Z,64.60
2018-04-17T06:14:11.364Z,64.60
2018-04-17T06:15:13.174Z,64.50
2018-04-17T06:16:14.250Z,64.50
2018-04-17T06:17:16.096Z,64.10
2018-04-17T06:18:17.945Z,64.10
2018-04-17T06:19:19.019Z,64.20
2018-04-17T06:20:20.132Z,64.40
2018-04-17T06:21:21.238Z,64.20
2018-04-17T06:22:22.346Z,64.30
2018-04-17T06:23:23.432Z,64.40
2018-04-17T06:24:24.528Z,64.30
2018-04-17T06:25:25.591Z,64.30
2018-04-17T06:26:26.663Z,64.40
2018-04-17T06:27:27.732Z,64.30
2018-04-17T06:28:28.821Z,64.00
2018-04-17T06:29:29.911Z,64.10
2018-04-17T06:30:30.995Z,64.10
2018-04-17T06:31:32.094Z,64.10
2018-04-17T06:32:33.198Z,64.10
2018-04-17T06:33:34.268Z,64.10
2018-04-17T06:34:35.342Z,64.20
2018-04-17T06:35:36.484Z,64.10
2018-04-17T06:36:37.551Z,64.20
2018-04-17T06:37:38.634Z,64.10
2018-04-17T06:38:39.715Z,64.20
2018-04-17T06:39:40.851Z,64.10
2018-04-17T06:40:41.947Z,64.10
2018-04-17T06:41:43.066Z,64.10
2018-04-17T06:42:44.095Z,64.30
2018-04-17T06:43:45.199Z,64.20
2018-04-17T06:44:46.279Z,64.30
2018-04-17T06:45:48.103Z,64.00
2018-04-17T06:46:49.173Z,64.00
2018-04-17T06:47:50.984Z,64.00
2018-04-17T06:48:52.068Z,63.90
2018-04-17T06:49:53.904Z,63.80
2018-04-17T06:50:54.973Z,63.80
2018-04-17T06:51:56.042Z,63.70
2018-04-17T06:52:57.129Z,63.30
2018-04-17T06:53:58.234Z,63.30
2018-04-17T06:54:59.290Z,63.60
2018-04-17T06:56:00.362Z,63.10
2018-04-17T06:57:01.445Z,62.90
2018-04-17T06:58:02.580Z,62.90
2018-04-17T06:59:03.665Z,62.90
2018-04-17T07:00:04.740Z,62.80
2018-04-17T07:01:05.843Z,62.60
2018-04-17T07:02:06.931Z,62.40
2018-04-17T07:03:08.028Z,62.30
2018-04-17T07:04:09.153Z,62.50
2018-04-17T07:05:10.275Z,62.50
2018-04-17T07:06:11.355Z,62.40
2018-04-17T07:07:12.455Z,62.30
2018-04-17T07:08:14.291Z,61.50
2018-04-17T07:09:15.412Z,61.40
2018-04-17T07:10:16.519Z,61.70
2018-04-17T07:11:17.595Z,62.10
2018-04-17T07:12:19.441Z,61.90
2018-04-17T07:13:20.526Z,61.90
2018-04-17T07:14:21.630Z,61.90
2018-04-17T07:15:22.706Z,61.80
2018-04-17T07:16:23.800Z,62.00
2018-04-17T07:17:24.892Z,62.00
2018-04-17T07:18:26.022Z,61.80
2018-04-17T07:19:27.137Z,62.30
2018-04-17T07:20:28.212Z,61.50
2018-04-17T07:21:30.047Z,61.10
2018-04-17T07:22:31.124Z,61.10
2018-04-17T07:23:32.226Z,60.80
2018-04-17T07:24:33.319Z,60.40
2018-04-17T07:25:34.421Z,60.10
2018-04-17T07:26:35.495Z,60.10
2018-04-17T07:27:36.647Z,59.80
2018-04-17T07:28:37.784Z,59.70
2018-04-17T07:29:38.907Z,59.30
2018-04-17T07:30:39.983Z,59.30
2018-04-17T07:31:41.060Z,59.20
2018-04-17T07:32:42.192Z,59.20
2018-04-17T07:33:43.251Z,59.30
2018-04-17T07:34:44.376Z,59.20
2018-04-17T07:35:45.479Z,59.30
2018-04-17T07:36:46.575Z,59.20
2018-04-17T07:37:47.662Z,58.80
2018-04-17T07:38:48.777Z,58.80
2018-04-17T07:39:49.871Z,58.50
2018-04-17T07:40:51.015Z,58.70
2018-04-17T07:41:52.108Z,58.60
2018-04-17T07:42:53.163Z,58.20
2018-04-17T07:43:55.015Z,57.60
2018-04-17T07:44:56.136Z,57.60
2018-04-17T07:45:57.243Z,57.10
2018-04-17T07:47:10.543Z,57.10
2018-04-17T07:48:24.595Z,57.20
2018-04-17T07:49:25.667Z,57.50
2018-04-17T07:50:27.522Z,57.10
2018-04-17T07:51:28.628Z,57.10
2018-04-17T07:52:29.696Z,56.80
2018-04-17T07:53:30.771Z,56.50
2018-04-17T07:54:31.843Z,56.70
2018-04-17T07:55:33.719Z,56.40
2018-04-17T07:56:34.831Z,56.40
2018-04-17T07:57:35.929Z,56.50
2018-04-17T07:58:37.015Z,56.40
2018-04-17T07:59:43.091Z,55.80
2018-04-17T08:00:50.710Z,55.40
2018-04-17T08:01:52.756Z,55.50
2018-04-17T08:02:53.880Z,55.50
2018-04-17T08:03:54.956Z,55.60
2018-04-17T08:04:56.040Z,56.30
2018-04-17T08:05:57.123Z,55.10
2018-04-17T08:06:58.191Z,55.10
2018-04-17T08:07:59.247Z,55.20
2018-04-17T08:09:00.315Z,55.20
2018-04-17T08:10:01.402Z,55.30
2018-04-17T08:11:02.544Z,55.20
2018-04-17T08:12:03.627Z,55.40
2018-04-17T08:13:04.711Z,54.80
2018-04-17T08:14:05.785Z,54.70
2018-04-17T08:15:06.859Z,54.60
2018-04-17T08:16:14.874Z,54.60
2018-04-17T08:17:15.940Z,54.50
2018-04-17T08:18:17.018Z,54.20
2018-04-17T08:19:18.143Z,54.20
2018-04-17T08:20:19.223Z,53.80
2018-04-17T08:21:21.197Z,53.80
2018-04-17T08:22:22.255Z,53.80
2018-04-17T08:23:23.363Z,54.20
2018-04-17T08:24:24.451Z,54.00
2018-04-17T08:25:25.537Z,54.10
2018-04-17T08:26:26.749Z,53.90
2018-04-17T08:27:27.825Z,53.70
2018-04-17T08:28:28.892Z,53.70
2018-04-17T08:29:29.965Z,53.60
2018-04-17T08:30:31.172Z,53.10
2018-04-17T08:31:32.272Z,53.70
2018-04-17T08:32:33.355Z,54.10
2018-04-17T08:33:34.427Z,53.90
2018-04-17T08:34:35.512Z,53.90
2018-04-17T08:35:36.596Z,53.70
2018-04-17T08:36:37.659Z,53.90
2018-04-17T08:37:39.504Z,53.70
2018-04-17T08:38:41.430Z,53.50
2018-04-17T08:39:42.479Z,53.50
2018-04-17T08:40:43.528Z,53.80
2018-04-17T08:41:45.386Z,53.70
2018-04-17T08:42:46.511Z,53.50
2018-04-17T08:43:47.555Z,53.40
2018-04-17T08:44:48.644Z,53.60
2018-04-17T08:45:49.734Z,53.60
2018-04-17T08:46:50.812Z,53.50
2018-04-17T08:47:51.884Z,53.60
2018-04-17T08:48:53.015Z,53.40
2018-04-17T08:49:54.077Z,53.20
2018-04-17T08:50:55.126Z,53.30
2018-04-17T08:51:56.198Z,53.00
2018-04-17T08:52:57.263Z,53.00
2018-04-17T08:53:58.318Z,53.10
2018-04-17T08:54:59.375Z,52.80
2018-04-17T08:56:00.465Z,52.50
2018-04-17T08:57:01.555Z,52.90
2018-04-17T08:58:02.657Z,52.70
2018-04-17T08:59:03.723Z,53.10
2018-04-17T09:00:05.526Z,53.20
2018-04-17T09:01:06.583Z,53.30
2018-04-17T09:02:07.672Z,53.20
2018-04-17T09:03:08.768Z,53.30
2018-04-17T09:04:09.899Z,53.10
2018-04-17T09:05:11.744Z,53.00
2018-04-17T09:06:12.769Z,52.90
2018-04-17T09:07:13.839Z,52.90
2018-04-17T09:08:14.952Z,52.60
2018-04-17T09:09:16.047Z,52.80
2018-04-17T09:10:17.132Z,52.70
2018-04-17T09:11:18.216Z,52.70
2018-04-17T09:12:19.301Z,52.70
2018-04-17T09:13:20.370Z,52.90
2018-04-17T09:14:21.418Z,53.20
2018-04-17T09:15:22.475Z,52.70
2018-04-17T09:16:23.544Z,53.10
2018-04-17T09:17:24.614Z,53.20
2018-04-17T09:18:25.703Z,52.70
2018-04-17T09:19:26.772Z,52.50
2018-04-17T09:20:27.844Z,52.60
2018-04-17T09:21:28.923Z,52.30
2018-04-17T09:22:30.792Z,52.10
2018-04-17T09:23:31.871Z,52.00
2018-04-17T09:24:32.943Z,52.00
2018-04-17T09:25:34.007Z,52.10
2018-04-17T09:26:35.888Z,53.00
2018-04-17T09:27:36.997Z,52.30
2018-04-17T09:28:38.058Z,52.30
2018-04-17T09:29:39.129Z,52.20
2018-04-17T09:30:40.186Z,52.30
2018-04-17T09:31:42.048Z,51.90
2018-04-17T09:32:43.863Z,52.00
2018-04-17T09:33:44.984Z,51.90
2018-04-17T09:34:46.064Z,51.80
2018-04-17T09:35:47.878Z,51.40
2018-04-17T09:36:48.956Z,51.40
2018-04-17T09:37:50.043Z,50.90
2018-04-17T09:38:51.116Z,51.00
2018-04-17T09:39:52.199Z,51.20
2018-04-17T09:40:53.284Z,50.90
2018-04-17T09:41:54.387Z,51.00
2018-04-17T09:42:55.459Z,51.20
2018-04-17T09:43:56.534Z,50.90
2018-04-17T09:44:57.601Z,50.80
2018-04-17T09:45:58.711Z,50.80
2018-04-17T09:46:59.768Z,50.70
2018-04-17T09:48:01.585Z,50.70
2018-04-17T09:49:02.661Z,50.70
2018-04-17T09:50:03.740Z,50.50
2018-04-17T09:51:04.818Z,51.10
2018-04-17T09:52:05.888Z,51.20
2018-04-17T09:53:06.959Z,50.90
2018-04-17T09:54:08.030Z,51.00
2018-04-17T09:55:09.151Z,51.00
2018-04-17T09:56:10.246Z,51.00
2018-04-17T09:57:11.297Z,50.70
2018-04-17T09:58:13.158Z,49.90
2018-04-17T09:59:14.981Z,50.00
2018-04-17T10:00:16.057Z,50.00
2018-04-17T10:01:17.951Z,50.40
2018-04-17T10:02:19.023Z,50.20
2018-04-17T10:03:20.091Z,50.30
2018-04-17T10:04:21.188Z,49.40
2018-04-17T10:05:22.283Z,49.50
2018-04-17T10:06:23.338Z,49.10
2018-04-17T10:07:25.169Z,49.90
2018-04-17T10:08:26.244Z,49.10
2018-04-17T10:09:27.339Z,49.10
2018-04-17T10:10:28.410Z,48.80
2018-04-17T10:11:29.483Z,48.60
2018-04-17T10:12:30.543Z,48.60
2018-04-17T10:13:32.378Z,48.10
2018-04-17T10:14:33.447Z,48.00
2018-04-17T10:15:34.541Z,48.40
2018-04-17T10:16:35.624Z,48.30
2018-04-17T10:17:36.703Z,48.00
2018-04-17T10:18:37.807Z,48.00
2018-04-17T10:19:38.935Z,48.30
2018-04-17T10:20:40.013Z,48.40
2018-04-17T10:21:41.083Z,48.70
2018-04-17T10:22:42.162Z,48.80
2018-04-17T10:23:43.234Z,48.20
2018-04-17T10:24:45.092Z,47.80
2018-04-17T10:25:46.163Z,47.90
2018-04-17T10:26:47.262Z,47.90
2018-04-17T10:27:48.346Z,48.00
2018-04-17T10:28:49.423Z,48.00
2018-04-17T10:29:50.543Z,47.70
2018-04-17T10:30:51.570Z,47.60
2018-04-17T10:31:53.390Z,47.40
2018-04-17T10:32:54.526Z,47.40
2018-04-17T10:33:55.627Z,47.60
2018-04-17T10:34:56.686Z,47.20
2018-04-17T10:35:57.761Z,46.80
2018-04-17T10:36:58.825Z,47.20
2018-04-17T10:37:59.932Z,47.00
2018-04-17T10:39:01.760Z,47.00
2018-04-17T10:40:02.858Z,47.00
2018-04-17T10:41:03.924Z,47.40
2018-04-17T10:42:05.011Z,47.50
2018-04-17T10:43:06.200Z,46.50
2018-04-17T10:44:07.312Z,47.00
2018-04-17T10:45:09.147Z,45.70
2018-04-17T10:46:10.227Z,45.60
2018-04-17T10:47:11.316Z,45.60
2018-04-17T10:48:12.438Z,45.80
2018-04-17T10:49:13.511Z,45.60
2018-04-17T10:50:15.317Z,45.00
2018-04-17T10:51:16.395Z,45.00
2018-04-17T10:52:17.464Z,43.90
2018-04-17T10:53:18.571Z,44.70
2018-04-17T10:54:19.651Z,44.30
2018-04-17T10:55:21.487Z,44.40
2018-04-17T10:56:22.547Z,44.90
2018-04-17T10:57:23.664Z,45.60
2018-04-17T10:58:24.771Z,45.50
2018-04-17T10:59:25.835Z,45.00
2018-04-17T11:00:26.895Z,45.50
2018-04-17T11:01:28.711Z,44.90
2018-04-17T11:02:29.773Z,44.80
2018-04-17T11:03:31.608Z,45.30
2018-04-17T11:04:32.684Z,45.30
2018-04-17T11:05:33.750Z,45.40
2018-04-17T11:06:34.810Z,45.00
2018-04-17T11:07:36.655Z,44.50
2018-04-17T11:08:37.824Z,44.40
2018-04-17T11:09:38.879Z,44.60
2018-04-17T11:10:39.953Z,45.40
2018-04-17T11:11:41.012Z,44.10
2018-04-17T11:12:42.064Z,44.10
2018-04-17T11:13:43.167Z,44.10
2018-04-17T11:14:45.013Z,44.60
2018-04-17T11:15:46.082Z,44.20
2018-04-17T11:16:47.169Z,42.90
2018-04-17T11:17:48.231Z,43.40
2018-04-17T11:18:49.340Z,43.50
2018-04-17T11:19:51.143Z,44.00
2018-04-17T11:20:52.249Z,43.20
2018-04-17T11:21:54.024Z,43.00
2018-04-17T11:22:55.136Z,42.90
2018-04-17T11:23:56.198Z,43.10
2018-04-17T11:24:57.269Z,43.20
2018-04-17T11:25:58.325Z,42.20
2018-04-17T11:26:59.387Z,43.00
2018-04-17T11:28:00.481Z,42.70
2018-04-17T11:29:01.596Z,42.10
2018-04-17T11:30:02.684Z,42.00
2018-04-17T11:31:03.759Z,41.70
2018-04-17T11:32:04.846Z,41.70
2018-04-17T11:33:05.904Z,41.40
2018-04-17T11:34:07.002Z,41.30
2018-04-17T11:35:08.075Z,41.50
2018-04-17T11:36:09.139Z,41.50
2018-04-17T11:37:10.955Z,41.70
2018-04-17T11:38:12.027Z,41.40
2018-04-17T11:40:20.874Z,41.00
2018-04-17T11:41:21.940Z,40.30
2018-04-17T11:42:23.018Z,39.80
2018-04-17T11:43:24.115Z,39.20
2018-04-17T11:44:25.195Z,39.90
2018-04-17T11:45:26.319Z,40.00
2018-04-17T11:46:27.398Z,39.70
2018-04-17T11:47:28.515Z,40.00
2018-04-17T11:48:29.582Z,40.10
2018-04-17T11:49:31.404Z,40.40
2018-04-17T11:50:32.461Z,40.40
2018-04-17T11:51:34.282Z,40.90
2018-04-17T11:52:35.358Z,40.00
2018-04-17T11:53:36.454Z,40.10
2018-04-17T11:54:37.538Z,40.30
2018-04-17T11:55:38.600Z,40.20
2018-04-17T11:56:39.678Z,41.10
2018-04-17T11:57:41.487Z,38.20
2018-04-17T11:58:42.551Z,38.00
2018-04-17T11:59:43.624Z,37.70
2018-04-17T12:00:44.679Z,38.20
2018-04-17T12:01:45.822Z,38.20
2018-04-17T12:02:46.893Z,38.20
2018-04-17T12:03:48.047Z,38.20
2018-04-17T12:04:49.124Z,38.30
2018-04-17T12:05:50.255Z,37.10
2018-04-17T12:06:51.326Z,37.60
2018-04-17T12:07:53.140Z,37.40
2018-04-17T12:08:54.222Z,37.40
2018-04-17T12:09:55.297Z,37.30
2018-04-17T12:10:56.411Z,37.10
2018-04-17T12:11:57.475Z,37.30
2018-04-17T12:12:58.595Z,37.40
2018-04-17T12:13:59.685Z,37.40
2018-04-17T12:15:00.742Z,36.90
2018-04-17T12:16:01.826Z,37.50
2018-04-17T12:17:02.943Z,36.80
2018-04-17T12:18:04.023Z,35.60
2018-04-17T12:19:05.138Z,36.40
2018-04-17T12:20:06.239Z,36.60
2018-04-17T12:21:07.319Z,36.90
2018-04-17T12:22:08.396Z,36.40
2018-04-17T12:23:09.507Z,35.60
2018-04-17T12:24:10.597Z,35.40
2018-04-17T12:25:11.655Z,35.60
2018-04-17T12:26:12.704Z,35.80
2018-04-17T12:27:13.789Z,36.00
2018-04-17T12:28:14.878Z,36.20
2018-04-17T12:29:15.955Z,36.60
2018-04-17T12:30:17.022Z,36.80
2018-04-17T12:31:18.094Z,36.60
2018-04-17T12:32:19.906Z,36.20
2018-04-17T12:33:21.063Z,36.20
2018-04-17T12:34:22.135Z,35.30
2018-04-17T12:35:23.951Z,35.80
2018-04-17T12:36:25.007Z,35.80
2018-04-17T12:37:26.806Z,35.70
2018-04-17T12:38:27.899Z,35.70
2018-04-17T12:39:29.708Z,35.40
2018-04-17T12:40:30.872Z,35.30
2018-04-17T12:41:31.967Z,34.90
2018-04-17T12:42:33.046Z,35.00
2018-04-17T12:43:34.876Z,35.40
2018-04-17T12:44:36.020Z,35.30
2018-04-17T12:45:37.839Z,35.20
2018-04-17T12:46:38.929Z,35.00
2018-04-17T12:47:40.004Z,35.10
2018-04-17T12:48:41.087Z,35.20
2018-04-17T12:49:42.201Z,35.20
2018-04-17T12:50:43.214Z,35.20
2018-04-17T12:51:44.275Z,34.50
2018-04-17T12:52:45.388Z,34.70
2018-04-17T12:53:46.499Z,35.10
2018-04-17T12:54:47.577Z,34.60
2018-04-17T12:55:48.671Z,34.70
2018-04-17T12:56:49.745Z,35.20
2018-04-17T12:57:50.836Z,34.80
2018-04-17T12:58:51.914Z,34.70
2018-04-17T12:59:52.992Z,34.50
2018-04-17T13:00:54.069Z,34.80
2018-04-17T13:01:55.168Z,34.00
2018-04-17T13:02:56.263Z,34.80
2018-04-17T13:03:57.362Z,34.00
2018-04-17T13:04:58.445Z,33.50
2018-04-17T13:05:59.511Z,33.30
2018-04-17T13:07:00.587Z,34.20
2018-04-17T13:08:01.665Z,33.70
2018-04-17T13:09:02.746Z,34.00
2018-04-17T13:10:03.835Z,33.30
2018-04-17T13:11:04.930Z,32.70
2018-04-17T13:12:06.020Z,33.70
2018-04-17T13:13:07.117Z,34.30
2018-04-17T13:14:08.193Z,34.70